Terminal Aerodrome Forecast
Issued by NWS

Home | Current Version | Previous Version | Text Only | Print | Product List | Glossary On
Versions: 1 2 3 4 5 6 7 8 9 10 11 12 13
311
FTUS45 KRIW 052320
TAFBPI
TAF
KBPI 052320Z 0600/0624 34012KT P6SM FEW050
     FM060700 35007KT P6SM BKN070
     FM061800 31011KT P6SM BKN050=

USA.gov is the U.S. government's official web portal to all federal, state and local government web resources and services.